createdAt,value
2019-06-01T00:00:42.581Z,73.48
2019-06-01T00:01:42.577Z,73.18
2019-06-01T00:02:45.281Z,73.38
2019-06-01T00:03:44.277Z,73.58
2019-06-01T00:04:42.996Z,73.58
2019-06-01T00:05:42.604Z,73.68
2019-06-01T00:06:42.870Z,73.58
2019-06-01T00:07:42.965Z,74.22
2019-06-01T00:08:43.109Z,74.32
2019-06-01T00:09:43.054Z,74.83
2019-06-01T00:10:42.995Z,74.22
2019-06-01T00:11:43.348Z,74.52
2019-06-01T00:12:43.500Z,74.12
2019-06-01T00:13:43.466Z,75.03
2019-06-01T00:14:43.584Z,74.83
2019-06-01T00:15:42.435Z,75.03
2019-06-01T00:16:43.708Z,74.93
2019-06-01T00:17:42.430Z,74.93
2019-06-01T00:18:42.385Z,75.03
2019-06-01T00:19:42.373Z,74.93
2019-06-01T00:20:42.375Z,75.43
2019-06-01T00:21:43.243Z,75.34
2019-06-01T00:22:43.281Z,75.57
2019-06-01T00:23:42.527Z,75.27
2019-06-01T00:24:43.503Z,75.27
2019-06-01T00:25:42.646Z,75.07
2019-06-01T00:26:43.626Z,75.47
2019-06-01T00:27:42.550Z,75.16
2019-06-01T00:28:42.277Z,75.13
2019-06-01T00:29:42.706Z,75.16
2019-06-01T00:30:42.268Z,75.37
2019-06-01T00:31:43.063Z,75.07
2019-06-01T00:32:42.994Z,75.77
2019-06-01T00:33:43.326Z,75.77
2019-06-01T00:34:43.513Z,75.77
2019-06-01T00:35:43.433Z,75.98
2019-06-01T00:36:43.450Z,75.87
2019-06-01T00:37:43.379Z,76.28
2019-06-01T00:38:42.169Z,76.07
2019-06-01T00:39:42.161Z,76.48
2019-06-01T00:40:42.163Z,76.42
2019-06-01T00:41:42.150Z,77.62
2019-06-01T00:42:42.142Z,77.12
2019-06-01T00:43:42.165Z,77.32
2019-06-01T00:44:42.176Z,77.12
2019-06-01T00:45:42.346Z,77.02
2019-06-01T00:46:42.545Z,77.22
2019-06-01T00:47:42.664Z,77.02
2019-06-01T00:48:42.061Z,77.15
2019-06-01T00:49:42.706Z,77.15
2019-06-01T00:50:43.049Z,77.46
2019-06-01T00:51:42.812Z,77.15
2019-06-01T00:52:42.963Z,77.46
2019-06-01T00:53:43.277Z,77.06
2019-06-01T00:54:43.100Z,77.26
2019-06-01T00:55:43.156Z,77.36
2019-06-01T00:56:43.382Z,77.15
2019-06-01T00:57:41.965Z,77.66
2019-06-01T00:58:41.959Z,77.26
2019-06-01T00:59:41.945Z,77.36
2019-06-01T01:00:44.218Z,77.56
2019-06-01T01:01:41.922Z,77.76
2019-06-01T01:02:41.913Z,77.90
2019-06-01T01:03:41.903Z,78.10
2019-06-01T01:04:41.894Z,77.90
2019-06-01T01:05:41.909Z,77.70
2019-06-01T01:06:41.878Z,77.80
2019-06-01T01:07:41.862Z,77.90
2019-06-01T01:08:41.853Z,78.41
2019-06-01T01:09:41.837Z,78.00
2019-06-01T01:10:41.827Z,77.70
2019-06-01T01:11:41.826Z,77.80
2019-06-01T01:12:41.817Z,77.70
2019-06-01T01:13:41.795Z,78.10
2019-06-01T01:14:41.787Z,78.41
2019-06-01T01:15:41.776Z,77.80
2019-06-01T01:16:41.775Z,78.00
2019-06-01T01:17:41.760Z,77.90
2019-06-01T01:18:41.741Z,78.30
2019-06-01T01:19:41.745Z,78.34
2019-06-01T01:20:41.722Z,78.34
2019-06-01T01:21:41.723Z,78.44
2019-06-01T01:22:41.699Z,78.24
2019-06-01T01:23:41.693Z,78.95
2019-06-01T01:24:41.677Z,78.24
2019-06-01T01:25:41.667Z,78.64
2019-06-01T01:26:41.667Z,78.55
2019-06-01T01:27:41.644Z,78.95
2019-06-01T01:28:41.674Z,79.05
2019-06-01T01:29:41.630Z,79.05
2019-06-01T01:30:41.612Z,79.15
2019-06-01T01:31:41.613Z,79.46
2019-06-01T01:32:41.594Z,79.35
2019-06-01T01:33:41.580Z,79.35
2019-06-01T01:34:41.572Z,79.15
2019-06-01T01:35:41.557Z,79.66
2019-06-01T01:36:41.559Z,79.55
2019-06-01T01:37:41.535Z,79.55
2019-06-01T01:38:41.527Z,79.96
2019-06-01T01:39:41.516Z,79.25
2019-06-01T01:40:41.503Z,79.35
2019-06-01T01:41:41.504Z,79.15
2019-06-01T01:42:41.482Z,78.85
2019-06-01T01:43:41.479Z,79.05
2019-06-01T01:44:41.461Z,79.08
2019-06-01T01:45:41.453Z,78.78
2019-06-01T01:46:41.452Z,78.44
2019-06-01T01:47:41.428Z,78.34
2019-06-01T01:48:41.419Z,78.44
2019-06-01T01:49:41.433Z,78.64
2019-06-01T01:50:41.399Z,78.75
2019-06-01T01:51:41.397Z,78.95
2019-06-01T01:52:41.374Z,79.08
2019-06-01T01:53:41.363Z,79.19
2019-06-01T01:54:41.353Z,78.68
2019-06-01T01:55:41.350Z,78.95
2019-06-01T01:56:41.345Z,79.19
2019-06-01T01:57:41.321Z,79.39
2019-06-01T01:58:41.331Z,79.59
2019-06-01T01:59:41.301Z,79.90
2019-06-01T02:00:41.289Z,79.79
2019-06-01T02:01:41.302Z,79.69
2019-06-01T02:02:41.270Z,79.59
2019-06-01T02:03:41.256Z,79.90
2019-06-01T02:04:41.261Z,80.00
2019-06-01T02:05:41.234Z,80.00
2019-06-01T02:06:41.237Z,80.20
2019-06-01T02:07:41.232Z,80.34
2019-06-01T02:08:41.204Z,80.20
2019-06-01T02:09:41.213Z,80.13
2019-06-01T02:10:41.189Z,80.40
2019-06-01T02:11:41.182Z,80.34
2019-06-01T02:12:41.160Z,80.44
2019-06-01T02:13:41.155Z,80.04
2019-06-01T02:14:41.137Z,80.04
2019-06-01T02:15:41.128Z,80.54
2019-06-01T02:16:41.125Z,80.54
2019-06-01T02:17:41.115Z,80.34
2019-06-01T02:18:41.094Z,80.54
2019-06-01T02:19:41.087Z,80.78
2019-06-01T02:20:41.077Z,80.84
2019-06-01T02:21:41.086Z,80.88
2019-06-01T02:22:41.051Z,80.64
2019-06-01T02:23:41.046Z,80.13
2019-06-01T02:24:41.033Z,80.78
2019-06-01T02:25:41.017Z,80.34
2019-06-01T02:26:41.009Z,80.24
2019-06-01T02:27:41.009Z,80.27
2019-06-01T02:28:40.986Z,80.34
2019-06-01T02:29:40.978Z,80.88
2019-06-01T02:30:40.964Z,80.98
2019-06-01T02:31:42.847Z,81.39
2019-06-01T02:32:40.955Z,81.49
2019-06-01T02:33:40.933Z,81.49
2019-06-01T02:34:40.925Z,81.59
2019-06-01T02:35:40.937Z,81.69
2019-06-01T02:36:40.905Z,81.18
2019-06-01T02:37:40.906Z,81.29
2019-06-01T02:38:40.880Z,81.39
2019-06-01T02:39:40.878Z,81.52
2019-06-01T02:40:40.864Z,81.73
2019-06-01T02:41:40.849Z,81.49
2019-06-01T02:42:40.856Z,81.49
2019-06-01T02:43:40.830Z,81.69
2019-06-01T02:44:40.814Z,81.59
2019-06-01T02:45:40.807Z,81.59
2019-06-01T02:46:40.791Z,81.63
2019-06-01T02:47:40.791Z,81.32
2019-06-01T02:48:40.769Z,81.29
2019-06-01T02:49:40.758Z,81.43
2019-06-01T02:50:40.749Z,81.32
2019-06-01T02:51:40.740Z,81.43
2019-06-01T02:52:40.737Z,81.73
2019-06-01T02:53:40.716Z,82.54
2019-06-01T02:54:40.709Z,82.54
2019-06-01T02:55:40.693Z,82.14
2019-06-01T02:56:40.695Z,82.44
2019-06-01T02:57:40.684Z,82.14
2019-06-01T02:58:40.660Z,82.34
2019-06-01T02:59:40.651Z,82.64
2019-06-01T03:00:40.641Z,82.54
2019-06-01T03:01:55.982Z,82.14
2019-06-01T03:02:41.629Z,82.64
2019-06-01T03:03:40.606Z,82.48
2019-06-01T03:04:40.651Z,82.58
2019-06-01T03:05:40.585Z,82.78
2019-06-01T03:06:40.589Z,82.48
2019-06-01T03:07:40.573Z,83.18
2019-06-01T03:08:40.553Z,82.68
2019-06-01T03:09:40.541Z,82.48
2019-06-01T03:10:40.530Z,82.38
2019-06-01T03:11:40.523Z,82.89
2019-06-01T03:12:40.519Z,83.49
2019-06-01T03:13:40.505Z,83.29
2019-06-01T03:14:40.488Z,83.39
2019-06-01T03:15:40.476Z,83.80
2019-06-01T03:16:40.687Z,82.98
2019-06-01T03:17:40.466Z,83.09
2019-06-01T03:18:40.444Z,83.12
2019-06-01T03:19:40.442Z,83.29
2019-06-01T03:20:40.431Z,83.33
2019-06-01T03:21:40.412Z,82.98
2019-06-01T03:22:40.413Z,83.23
2019-06-01T03:23:40.390Z,83.43
2019-06-01T03:24:40.379Z,83.63
2019-06-01T03:25:40.370Z,83.63
2019-06-01T03:26:40.358Z,83.59
2019-06-01T03:27:40.358Z,83.73
2019-06-01T03:28:40.336Z,83.83
2019-06-01T03:29:40.325Z,83.94
2019-06-01T03:30:44.770Z,83.83
2019-06-01T03:31:41.327Z,83.83
2019-06-01T03:32:40.311Z,83.63
2019-06-01T03:33:40.282Z,83.63
2019-06-01T03:34:40.271Z,83.23
2019-06-01T03:35:40.260Z,83.12
2019-06-01T03:36:40.252Z,83.73
2019-06-01T03:37:40.511Z,83.53
2019-06-01T03:38:40.227Z,84.14
2019-06-01T03:39:40.217Z,83.83
2019-06-01T03:40:40.206Z,84.34
2019-06-01T03:41:40.196Z,84.34
2019-06-01T03:42:40.186Z,83.83
2019-06-01T03:43:40.179Z,84.04
2019-06-01T03:44:40.166Z,83.43
2019-06-01T03:45:40.156Z,84.04
2019-06-01T03:46:40.141Z,83.83
2019-06-01T03:47:40.130Z,83.94
2019-06-01T03:48:40.125Z,84.44
2019-06-01T03:49:40.161Z,84.24
2019-06-01T03:50:40.099Z,83.73
2019-06-01T03:51:40.089Z,83.53
2019-06-01T03:52:40.077Z,84.04
2019-06-01T03:53:40.075Z,83.83
2019-06-01T03:54:40.054Z,84.14
2019-06-01T03:55:40.047Z,84.14
2019-06-01T03:56:40.034Z,84.24
2019-06-01T03:57:40.023Z,84.14
2019-06-01T03:58:40.015Z,84.04
2019-06-01T03:59:40.015Z,83.94
2019-06-01T04:00:39.990Z,84.14
2019-06-01T04:01:39.985Z,84.55
2019-06-01T04:02:39.971Z,84.64
2019-06-01T04:03:39.962Z,84.14
2019-06-01T04:04:39.948Z,84.14
2019-06-01T04:05:39.935Z,84.24
2019-06-01T04:06:39.925Z,84.14
2019-06-01T04:07:39.921Z,83.94
2019-06-01T04:08:39.910Z,84.10
2019-06-01T04:09:39.895Z,84.04
2019-06-01T04:10:39.896Z,84.24
2019-06-01T04:11:39.873Z,84.14
2019-06-01T04:12:39.876Z,84.24
2019-06-01T04:13:39.854Z,84.24
2019-06-01T04:14:39.844Z,84.24
2019-06-01T04:15:39.831Z,84.44
2019-06-01T04:16:39.820Z,84.75
2019-06-01T04:17:39.808Z,84.24
2019-06-01T04:18:39.803Z,84.34
2019-06-01T04:19:39.787Z,84.85
2019-06-01T04:20:39.793Z,84.75
2019-06-01T04:21:39.767Z,85.76
2019-06-01T04:22:39.754Z,84.95
2019-06-01T04:23:39.750Z,85.76
2019-06-01T04:24:39.733Z,84.44
2019-06-01T04:25:39.723Z,84.85
2019-06-01T04:26:39.714Z,84.85
2019-06-01T04:27:39.704Z,84.85
2019-06-01T04:28:39.696Z,84.44
2019-06-01T04:29:39.680Z,84.64
2019-06-01T04:30:39.678Z,84.44
2019-06-01T04:31:39.663Z,84.34
2019-06-01T04:32:49.493Z,84.64
2019-06-01T04:33:40.641Z,84.34
2019-06-01T04:34:39.627Z,85.05
2019-06-01T04:35:39.613Z,84.75
2019-06-01T04:36:39.604Z,85.05
2019-06-01T04:37:39.596Z,85.05
2019-06-01T04:38:39.600Z,84.34
2019-06-01T04:39:39.577Z,85.05
2019-06-01T04:40:39.565Z,84.75
2019-06-01T04:41:39.552Z,84.85
2019-06-01T04:42:39.540Z,84.85
2019-06-01T04:43:39.558Z,84.85
2019-06-01T04:44:39.522Z,84.85
2019-06-01T04:45:39.514Z,84.55
2019-06-01T04:46:39.500Z,84.24
2019-06-01T04:47:39.484Z,84.55
2019-06-01T04:48:39.482Z,84.04
2019-06-01T04:49:39.481Z,84.14
2019-06-01T04:50:39.455Z,84.34
2019-06-01T04:51:39.445Z,84.34
2019-06-01T04:52:39.431Z,84.14
2019-06-01T04:53:39.421Z,84.55
2019-06-01T04:54:39.421Z,84.44
2019-06-01T04:55:39.398Z,84.20
2019-06-01T04:56:39.389Z,84.20
2019-06-01T04:57:39.377Z,84.10
2019-06-01T04:58:39.365Z,83.94
2019-06-01T04:59:39.372Z,84.10
2019-06-01T05:00:39.345Z,83.90
2019-06-01T05:01:39.336Z,84.41
2019-06-01T05:02:39.322Z,83.59
2019-06-01T05:03:39.318Z,83.80
2019-06-01T05:04:39.312Z,83.65
2019-06-01T05:05:39.290Z,83.49
2019-06-01T05:06:39.283Z,82.95
2019-06-01T05:07:39.273Z,82.98
2019-06-01T05:08:39.260Z,83.04
2019-06-01T05:09:39.263Z,83.04
2019-06-01T05:10:39.236Z,83.04
2019-06-01T05:11:39.225Z,82.44
2019-06-01T05:12:39.217Z,82.54
2019-06-01T05:13:39.203Z,82.84
2019-06-01T05:14:39.204Z,82.44
2019-06-01T05:15:39.199Z,82.84
2019-06-01T05:16:39.171Z,82.54
2019-06-01T05:17:39.173Z,82.84
2019-06-01T05:18:39.155Z,83.04
2019-06-01T05:19:39.165Z,82.54
2019-06-01T05:20:39.128Z,82.20
2019-06-01T05:21:39.155Z,82.34
2019-06-01T05:22:39.107Z,82.34
2019-06-01T05:23:39.096Z,82.20
2019-06-01T05:24:39.096Z,82.40
2019-06-01T05:25:39.074Z,82.81
2019-06-01T05:26:39.063Z,82.81
2019-06-01T05:27:39.051Z,82.10
2019-06-01T05:28:39.040Z,81.39
2019-06-01T05:29:39.045Z,81.18
2019-06-01T05:30:39.022Z,81.18
2019-06-01T05:31:39.009Z,81.25
2019-06-01T05:32:38.999Z,80.94
2019-06-01T05:33:39.008Z,80.78
2019-06-01T05:34:38.989Z,80.84
2019-06-01T05:35:38.967Z,80.64
2019-06-01T05:36:38.956Z,80.54
2019-06-01T05:37:38.954Z,80.94
2019-06-01T05:38:38.933Z,80.64
2019-06-01T05:39:38.948Z,81.55
2019-06-01T05:40:38.946Z,80.54
2019-06-01T05:41:38.904Z,80.64
2019-06-01T05:42:38.889Z,80.74
2019-06-01T05:43:38.879Z,79.90
2019-06-01T05:44:38.884Z,80.24
2019-06-01T05:45:38.857Z,80.30
2019-06-01T05:46:38.849Z,80.30
2019-06-01T05:47:38.835Z,80.20
2019-06-01T05:48:38.825Z,80.20
2019-06-01T05:49:38.845Z,79.69
2019-06-01T05:50:38.812Z,79.90
2019-06-01T05:51:38.798Z,79.69
2019-06-01T05:52:38.790Z,79.86
2019-06-01T05:53:38.770Z,79.46
2019-06-01T05:54:38.760Z,79.35
2019-06-01T05:55:38.766Z,79.25
2019-06-01T05:56:38.736Z,78.85
2019-06-01T05:57:38.726Z,79.05
2019-06-01T05:58:38.718Z,78.85
2019-06-01T05:59:38.705Z,79.25
2019-06-01T06:00:38.786Z,79.15
2019-06-01T06:01:38.693Z,79.05
2019-06-01T06:02:38.684Z,78.95
2019-06-01T06:03:40.651Z,78.95
2019-06-01T06:04:38.652Z,79.15
2019-06-01T06:05:38.656Z,78.75
2019-06-01T06:06:38.629Z,78.91
2019-06-01T06:07:38.619Z,79.21
2019-06-01T06:08:38.608Z,79.41
2019-06-01T06:09:38.615Z,79.35
2019-06-01T06:10:38.604Z,78.91
2019-06-01T06:11:38.576Z,78.41
2019-06-01T06:12:38.570Z,78.30
2019-06-01T06:13:38.560Z,78.30
2019-06-01T06:14:38.549Z,78.41
2019-06-01T06:15:38.545Z,78.30
2019-06-01T06:16:38.523Z,78.41
2019-06-01T06:17:38.513Z,78.71
2019-06-01T06:18:38.502Z,78.71
2019-06-01T06:19:38.491Z,79.08
2019-06-01T06:20:38.491Z,78.71
2019-06-01T06:21:38.484Z,78.81
2019-06-01T06:22:41.218Z,78.27
2019-06-01T06:23:38.447Z,78.17
2019-06-01T06:24:38.437Z,78.27
2019-06-01T06:25:41.037Z,78.27
2019-06-01T06:26:38.416Z,78.17
2019-06-01T06:27:38.403Z,78.27
2019-06-01T06:28:38.394Z,78.17
2019-06-01T06:29:38.382Z,78.27
2019-06-01T06:30:38.384Z,78.03
2019-06-01T06:31:38.362Z,78.37
2019-06-01T06:32:38.351Z,77.73
2019-06-01T06:33:38.339Z,77.93
2019-06-01T06:34:38.336Z,77.73
2019-06-01T06:35:38.328Z,77.22
2019-06-01T06:36:38.307Z,77.53
2019-06-01T06:37:38.302Z,77.39
2019-06-01T06:38:38.290Z,77.39
2019-06-01T06:39:38.276Z,77.19
2019-06-01T06:40:38.286Z,76.78
2019-06-01T06:41:38.260Z,75.87
2019-06-01T06:42:38.242Z,76.18
2019-06-01T06:43:38.233Z,76.48
2019-06-01T06:44:38.221Z,76.18
2019-06-01T06:45:38.224Z,76.04
2019-06-01T06:46:38.200Z,75.94
2019-06-01T06:47:38.194Z,76.14
2019-06-01T06:48:38.180Z,75.84
2019-06-01T06:49:38.168Z,76.34
2019-06-01T06:50:38.170Z,76.04
2019-06-01T06:51:38.147Z,75.94
2019-06-01T06:52:38.135Z,75.54
2019-06-01T06:53:38.124Z,75.34
2019-06-01T06:54:38.124Z,74.99
2019-06-01T06:55:38.138Z,74.59
2019-06-01T06:56:38.093Z,75.10
2019-06-01T06:57:38.082Z,74.79
2019-06-01T06:58:38.081Z,74.49
2019-06-01T06:59:38.071Z,73.99
2019-06-01T07:00:38.063Z,73.75
2019-06-01T07:01:38.048Z,74.05
2019-06-01T07:02:38.028Z,74.15
2019-06-01T07:03:38.028Z,74.46
2019-06-01T07:04:38.160Z,74.46
2019-06-01T07:05:38.007Z,73.35
2019-06-01T07:06:37.994Z,74.15
2019-06-01T07:07:37.976Z,73.45
2019-06-01T07:08:37.966Z,73.65
2019-06-01T07:09:37.951Z,73.01
2019-06-01T07:10:38.153Z,73.32
2019-06-01T07:11:37.931Z,73.11
2019-06-01T07:12:37.932Z,72.77
2019-06-01T07:13:37.910Z,73.41
2019-06-01T07:14:38.007Z,72.97
2019-06-01T07:15:37.917Z,71.87
2019-06-01T07:16:37.878Z,71.06
2019-06-01T07:17:37.865Z,71.56
2019-06-01T07:18:37.940Z,71.87
2019-06-01T07:19:37.949Z,72.17
2019-06-01T07:20:37.848Z,71.97
2019-06-01T07:21:37.882Z,71.77
2019-06-01T07:22:37.876Z,71.87
2019-06-01T07:23:37.798Z,71.87
2019-06-01T07:24:37.811Z,71.97
2019-06-01T07:25:37.779Z,71.43
2019-06-01T07:26:37.780Z,71.73
2019-06-01T07:27:37.771Z,70.83
2019-06-01T07:28:37.746Z,70.73
2019-06-01T07:29:37.770Z,71.30
2019-06-01T07:30:49.821Z,71.09
2019-06-01T07:31:38.726Z,69.99
2019-06-01T07:32:37.704Z,70.70
2019-06-01T07:33:37.692Z,70.36
2019-06-01T07:34:42.040Z,70.19
2019-06-01T07:35:38.667Z,70.26
2019-06-01T07:36:37.671Z,68.65
2019-06-01T07:37:37.650Z,68.65
2019-06-01T07:38:37.641Z,69.45
2019-06-01T07:39:37.629Z,69.06
2019-06-01T07:40:37.701Z,69.35
2019-06-01T07:41:37.619Z,69.56
2019-06-01T07:42:37.594Z,68.41
2019-06-01T07:43:37.586Z,68.62
2019-06-01T07:44:37.572Z,67.51
2019-06-01T07:45:37.561Z,67.21
2019-06-01T07:46:37.563Z,67.51
2019-06-01T07:47:37.551Z,67.11
2019-06-01T07:48:37.530Z,67.01
2019-06-01T07:49:37.519Z,67.01
2019-06-01T07:50:37.508Z,67.41
2019-06-01T07:51:37.511Z,66.08
2019-06-01T07:52:37.490Z,66.47
2019-06-01T07:53:37.488Z,65.88
2019-06-01T07:54:37.465Z,65.77
2019-06-01T07:55:37.454Z,65.77
2019-06-01T07:56:37.463Z,65.67
2019-06-01T07:57:37.435Z,65.77
2019-06-01T07:58:37.432Z,64.47
2019-06-01T07:59:37.467Z,63.93
2019-06-01T08:00:37.405Z,64.64
2019-06-01T08:01:37.422Z,64.67
2019-06-01T08:02:37.380Z,64.14
2019-06-01T08:03:37.368Z,64.54
2019-06-01T08:04:52.882Z,64.14
2019-06-01T08:05:38.345Z,64.64
2019-06-01T08:06:44.432Z,63.03
2019-06-01T08:07:38.324Z,63.23
2019-06-01T08:08:37.315Z,62.80
2019-06-01T08:09:37.309Z,62.10
2019-06-01T08:10:37.292Z,62.10
2019-06-01T08:11:37.297Z,62.30
2019-06-01T08:12:37.272Z,62.80
2019-06-01T08:13:37.260Z,62.30
2019-06-01T08:14:37.263Z,61.70
2019-06-01T08:15:37.238Z,61.57
2019-06-01T08:16:37.239Z,61.67
2019-06-01T08:17:37.218Z,61.87
2019-06-01T08:18:37.213Z,61.77
2019-06-01T08:19:37.195Z,62.27
2019-06-01T08:20:37.239Z,61.57
2019-06-01T08:21:37.184Z,60.64
2019-06-01T08:22:37.164Z,61.04
2019-06-01T08:23:37.151Z,61.84
2019-06-01T08:24:37.146Z,62.24
2019-06-01T08:25:37.130Z,61.94
2019-06-01T08:26:37.132Z,61.51
2019-06-01T08:27:37.108Z,60.41
2019-06-01T08:28:37.097Z,60.61
2019-06-01T08:29:37.090Z,59.50
2019-06-01T08:30:37.075Z,60.28
2019-06-01T08:31:37.076Z,60.38
2019-06-01T08:32:37.058Z,60.48
2019-06-01T08:33:37.045Z,59.98
2019-06-01T08:34:37.032Z,59.38
2019-06-01T08:35:37.041Z,59.28
2019-06-01T08:36:37.029Z,59.75
2019-06-01T08:37:37.001Z,59.28
2019-06-01T08:38:36.994Z,59.25
2019-06-01T08:39:36.992Z,59.85
2019-06-01T08:40:36.966Z,59.18
2019-06-01T08:41:36.955Z,58.65
2019-06-01T08:42:36.965Z,59.75
2019-06-01T08:43:36.934Z,60.05
2019-06-01T08:44:36.924Z,59.45
2019-06-01T08:45:37.500Z,59.62
2019-06-01T08:46:36.903Z,59.22
2019-06-01T08:47:36.904Z,59.12
2019-06-01T08:48:36.892Z,59.12
2019-06-01T08:49:36.871Z,59.12
2019-06-01T08:50:36.859Z,56.32
2019-06-01T08:51:36.847Z,56.52
2019-06-01T08:52:36.852Z,57.39
2019-06-01T08:53:36.838Z,56.20
2019-06-01T08:54:36.817Z,56.89
2019-06-01T08:55:36.807Z,56.20
2019-06-01T08:56:36.795Z,56.49
2019-06-01T08:57:36.797Z,56.70
2019-06-01T08:58:36.775Z,57.69
2019-06-01T08:59:36.763Z,57.79
2019-06-01T09:00:36.767Z,57.79
2019-06-01T09:01:36.743Z,58.17
2019-06-01T09:02:36.747Z,57.97
2019-06-01T09:03:45.494Z,58.37
2019-06-01T09:04:37.709Z,57.97
2019-06-01T09:05:36.702Z,57.76
2019-06-01T09:06:36.692Z,56.84
2019-06-01T09:07:36.768Z,56.24
2019-06-01T09:08:36.671Z,56.14
2019-06-01T09:09:36.763Z,56.04
2019-06-01T09:10:36.947Z,55.32
2019-06-01T09:11:36.693Z,54.34
2019-06-01T09:12:36.640Z,55.84
2019-06-01T09:13:36.626Z,56.41
2019-06-01T09:14:36.606Z,55.91
2019-06-01T09:15:36.593Z,56.31
2019-06-01T09:16:36.593Z,56.21
2019-06-01T09:17:36.583Z,56.21
2019-06-01T09:18:36.562Z,56.91
2019-06-01T09:19:36.550Z,57.18
2019-06-01T09:20:38.825Z,55.58
2019-06-01T09:21:36.536Z,55.99
2019-06-01T09:22:36.532Z,54.49
2019-06-01T09:23:37.494Z,54.69
2019-06-01T09:24:36.509Z,56.18
2019-06-01T09:25:36.488Z,56.16
2019-06-01T09:26:36.479Z,56.26
2019-06-01T09:27:36.477Z,55.56
2019-06-01T09:28:36.465Z,55.76
2019-06-01T09:29:36.443Z,55.93
2019-06-01T09:30:36.433Z,55.73
2019-06-01T09:31:36.724Z,55.13
2019-06-01T09:32:36.620Z,55.83
2019-06-01T09:33:36.920Z,55.63
2019-06-01T09:34:36.519Z,53.71
2019-06-01T09:35:53.653Z,54.81
2019-06-01T09:36:37.366Z,54.81
2019-06-01T09:37:36.777Z,55.01
2019-06-01T09:38:36.345Z,53.81
2019-06-01T09:39:37.297Z,54.38
2019-06-01T09:40:37.297Z,54.19
2019-06-01T09:41:36.639Z,52.69
2019-06-01T09:42:37.467Z,53.46
2019-06-01T09:43:37.169Z,52.39
2019-06-01T09:44:37.386Z,52.29
2019-06-01T09:45:36.417Z,52.89
2019-06-01T09:46:37.408Z,51.59
2019-06-01T09:47:36.262Z,52.39
2019-06-01T09:48:36.235Z,52.67
2019-06-01T09:49:36.231Z,52.47
2019-06-01T09:50:36.213Z,52.39
2019-06-01T09:51:37.644Z,52.07
2019-06-01T09:52:37.575Z,52.86
2019-06-01T09:53:36.251Z,51.27
2019-06-01T09:54:36.468Z,51.67
2019-06-01T09:55:36.480Z,52.24
2019-06-01T09:56:39.271Z,51.45
2019-06-01T09:57:36.176Z,50.65
2019-06-01T09:58:36.907Z,48.86
2019-06-01T09:59:36.119Z,49.85
2019-06-01T10:00:41.149Z,51.45
2019-06-01T10:01:37.094Z,50.73
2019-06-01T10:02:36.225Z,50.13
2019-06-01T10:03:36.574Z,49.93
2019-06-01T10:04:36.551Z,49.43
2019-06-01T10:05:36.487Z,50.10
2019-06-01T10:06:36.685Z,48.81
2019-06-01T10:07:37.032Z,47.13
2019-06-01T10:08:36.237Z,47.32
2019-06-01T10:09:36.050Z,48.64
2019-06-01T10:10:36.055Z,49.21
2019-06-01T10:11:36.087Z,48.61
2019-06-01T10:12:36.115Z,48.61
2019-06-01T10:13:36.366Z,48.41
2019-06-01T10:14:36.227Z,48.81
2019-06-01T10:15:36.494Z,49.29
2019-06-01T10:16:36.803Z,48.79
2019-06-01T10:17:37.075Z,47.50
2019-06-01T10:18:37.057Z,47.28
2019-06-01T10:19:36.749Z,48.19
2019-06-01T10:20:36.953Z,49.36
2019-06-01T10:21:36.179Z,48.79
2019-06-01T10:22:37.080Z,47.17
2019-06-01T10:23:36.522Z,48.66
2019-06-01T10:24:37.147Z,48.27
2019-06-01T10:25:36.463Z,47.05
2019-06-01T10:26:35.831Z,48.14
2019-06-01T10:27:36.749Z,47.16
2019-06-01T10:28:35.866Z,47.45
2019-06-01T10:29:36.730Z,46.86
2019-06-01T10:30:35.886Z,45.96
2019-06-01T10:31:39.661Z,45.96
2019-06-01T10:32:38.020Z,46.76
2019-06-01T10:33:37.373Z,46.56
2019-06-01T10:34:35.751Z,46.66
2019-06-01T10:35:36.874Z,47.65
2019-06-01T10:36:35.974Z,46.16
2019-06-01T10:37:35.712Z,46.66
2019-06-01T10:38:35.712Z,46.76
2019-06-01T10:39:35.692Z,45.54
2019-06-01T10:40:35.683Z,46.34
2019-06-01T10:41:35.669Z,47.23
2019-06-01T10:42:36.127Z,45.54
2019-06-01T10:43:35.688Z,45.15
2019-06-01T10:44:40.356Z,44.65
2019-06-01T10:45:37.798Z,44.85
2019-06-01T10:46:36.054Z,45.67
2019-06-01T10:47:35.943Z,45.34
2019-06-01T10:48:36.115Z,44.85
2019-06-01T10:49:35.940Z,44.75
2019-06-01T10:50:36.642Z,46.73
2019-06-01T10:51:36.232Z,46.14
2019-06-01T10:52:36.247Z,46.53
2019-06-01T10:53:36.386Z,46.71
2019-06-01T10:54:36.169Z,47.01
2019-06-01T10:55:36.170Z,46.61
2019-06-01T10:56:36.277Z,44.23
2019-06-01T10:57:36.623Z,43.64
2019-06-01T10:58:52.423Z,43.44
2019-06-01T10:59:36.491Z,44.71
2019-06-01T11:00:42.087Z,44.60
2019-06-01T11:01:37.849Z,45.28
2019-06-01T11:02:36.644Z,45.30
2019-06-01T11:03:36.610Z,46.27
2019-06-01T11:04:36.976Z,45.78
2019-06-01T11:05:36.649Z,44.27
2019-06-01T11:06:42.160Z,44.76
2019-06-01T11:07:36.748Z,44.37
2019-06-01T11:08:35.839Z,44.07
2019-06-01T11:09:35.385Z,45.65
2019-06-01T11:10:35.366Z,43.67
2019-06-01T11:11:35.350Z,43.35
2019-06-01T11:12:35.348Z,42.68
2019-06-01T11:13:35.329Z,42.46
2019-06-01T11:14:35.332Z,43.85
2019-06-01T11:15:35.308Z,44.35
2019-06-01T11:16:35.303Z,42.46
2019-06-01T11:17:35.288Z,40.78
2019-06-01T11:18:35.361Z,43.06
2019-06-01T11:19:35.334Z,42.76
2019-06-01T11:20:35.280Z,43.33
2019-06-01T11:21:35.561Z,43.06
2019-06-01T11:22:35.614Z,43.33
2019-06-01T11:23:35.572Z,43.33
2019-06-01T11:24:35.385Z,43.24
2019-06-01T11:25:35.637Z,43.02
2019-06-01T11:26:35.586Z,42.13
2019-06-01T11:27:35.603Z,41.14
2019-06-01T11:28:36.212Z,40.55
2019-06-01T11:29:41.210Z,41.24
2019-06-01T11:30:36.150Z,41.83
2019-06-01T11:31:35.978Z,41.83
2019-06-01T11:32:35.932Z,40.94
2019-06-01T11:33:36.002Z,41.14
2019-06-01T11:34:36.449Z,42.01
2019-06-01T11:35:35.095Z,42.70
2019-06-01T11:36:36.159Z,42.40
2019-06-01T11:37:36.107Z,41.00
2019-06-01T11:38:36.240Z,41.20
2019-06-01T11:39:36.300Z,39.32
2019-06-01T11:40:36.416Z,39.40
2019-06-01T11:41:36.316Z,39.99
2019-06-01T11:42:35.154Z,40.58
2019-06-01T11:43:35.009Z,40.48
2019-06-01T11:44:35.011Z,39.50
2019-06-01T11:45:34.988Z,39.99
2019-06-01T11:46:34.982Z,39.30
2019-06-01T11:47:34.981Z,39.99
2019-06-01T11:48:37.131Z,42.24
2019-06-01T11:49:34.956Z,40.45
2019-06-01T11:50:35.270Z,39.36
2019-06-01T11:51:34.990Z,39.76
2019-06-01T11:52:35.030Z,39.86
2019-06-01T11:53:35.167Z,38.67
2019-06-01T11:54:35.097Z,38.35
2019-06-01T11:55:35.171Z,39.04
2019-06-01T11:56:35.170Z,39.15
2019-06-01T11:57:35.273Z,38.83
2019-06-01T11:58:35.131Z,38.34
2019-06-01T11:59:35.287Z,38.83
2019-06-01T12:00:35.389Z,38.24
2019-06-01T12:01:35.633Z,38.62
2019-06-01T12:02:35.536Z,38.91
2019-06-01T12:03:35.539Z,38.71
2019-06-01T12:04:35.758Z,38.60
2019-06-01T12:05:35.797Z,37.22
2019-06-01T12:06:35.680Z,37.12
2019-06-01T12:07:35.674Z,37.32
2019-06-01T12:08:35.894Z,37.61
2019-06-01T12:09:35.743Z,37.32
2019-06-01T12:10:34.724Z,37.40
2019-06-01T12:11:35.742Z,38.18
2019-06-01T12:12:35.939Z,37.49
2019-06-01T12:13:35.926Z,37.20
2019-06-01T12:14:36.202Z,37.30
2019-06-01T12:15:34.675Z,36.00
2019-06-01T12:16:34.662Z,35.90
2019-06-01T12:17:34.655Z,36.00
2019-06-01T12:18:34.640Z,36.97
2019-06-01T12:19:34.642Z,36.18
2019-06-01T12:20:34.623Z,35.88
2019-06-01T12:21:34.608Z,34.99
2019-06-01T12:22:34.599Z,35.77
2019-06-01T12:23:34.588Z,34.47
2019-06-01T12:24:34.580Z,34.75
2019-06-01T12:25:34.573Z,34.93
2019-06-01T12:26:34.559Z,35.89
2019-06-01T12:27:34.581Z,36.74
2019-06-01T12:28:34.539Z,32.60
2019-06-01T12:29:34.529Z,30.59
2019-06-01T12:30:34.523Z,30.45
2019-06-01T12:31:34.510Z,29.04
2019-06-01T12:32:34.501Z,29.66
2019-06-01T12:33:34.491Z,27.19
2019-06-01T12:34:34.485Z,27.45
2019-06-01T12:35:34.475Z,25.36
2019-06-01T12:36:34.463Z,24.07
2019-06-01T12:37:52.491Z,23.72
2019-06-01T12:38:35.444Z,22.53
2019-06-01T12:39:34.436Z,21.73
2019-06-01T12:40:34.431Z,21.72
2019-06-01T12:41:34.419Z,21.59
2019-06-01T12:42:34.410Z,21.08
2019-06-01T12:43:34.404Z,20.29
2019-06-01T12:44:34.392Z,19.51
2019-06-01T12:45:34.388Z,18.83
2019-06-01T12:46:34.375Z,19.48
2019-06-01T12:47:34.367Z,18.60
2019-06-01T12:48:34.362Z,18.98
2019-06-01T12:49:34.352Z,17.91
2019-06-01T12:50:34.344Z,17.32
2019-06-01T12:51:34.336Z,17.48
2019-06-01T12:52:34.326Z,17.18